Time;durP1;ratioP1;P1;durP2;ratioP2;P2;SDS_P1;SDS_P2;PMS_P1;PMS_P2;Temp;Humidity;BMP_temperature;BMP_pressure;BME280_temperature;BME280_humidity;BME280_pressure;Samples;Min_cycle;Max_cycle;Signal;HPM_P1;HPM_P2
2022/06/18 00:03:06;;;;;;;4.45;3.10;;;;;;;18.87;58.38;96934.75;4916811;29;20041;-81
2022/06/18 00:08:15;;;;;;;4.00;3.40;;;;;;;18.80;58.88;96934.56;5241177;23;20056;-84
2022/06/18 00:10:54;;;;;;;6.10;3.30;;;;;;;18.77;59.08;96932.53;4906683;29;20111;-84
2022/06/18 00:15:46;;;;;;;5.68;3.60;;;;;;;18.68;58.49;96920.88;4944409;23;20036;-86
2022/06/18 00:18:14;;;;;;;5.97;3.60;;;;;;;18.65;58.93;96916.03;4936923;29;20123;-84
2022/06/18 00:20:42;;;;;;;4.32;3.10;;;;;;;18.66;58.57;96912.13;4945781;23;20036;-86
2022/06/18 00:23:14;;;;;;;6.43;3.70;;;;;;;18.55;58.40;96916.59;4944001;23;20082;-85
2022/06/18 00:25:45;;;;;;;5.95;3.35;;;;;;;18.65;60.61;96921.56;4934028;29;20064;-84
2022/06/18 00:28:19;;;;;;;8.05;3.85;;;;;;;18.32;58.56;96914.41;4916276;29;20068;-85
2022/06/18 00:30:46;;;;;;;5.45;3.58;;;;;;;18.37;58.07;96919.66;4932478;29;20068;-84
2022/06/18 00:33:13;;;;;;;6.22;3.83;;;;;;;18.29;58.20;96920.66;4932090;29;20116;-85
2022/06/18 00:35:41;;;;;;;5.20;3.65;;;;;;;18.33;58.52;96927.06;4931996;29;20108;-84
2022/06/18 00:38:16;;;;;;;6.35;3.63;;;;;;;18.38;58.65;96914.97;4931443;29;20064;-84
2022/06/18 00:40:45;;;;;;;5.03;3.45;;;;;;;18.42;59.78;96913.88;4932760;29;20048;-85
2022/06/18 00:43:18;;;;;;;5.65;3.78;;;;;;;18.37;59.46;96905.88;4932156;29;20048;-85
2022/06/18 00:45:45;;;;;;;6.05;4.07;;;;;;;18.41;59.42;96912.28;4931596;29;20099;-84
2022/06/18 00:48:20;;;;;;;6.22;3.55;;;;;;;18.40;58.40;96909.91;4932376;29;20116;-86
2022/06/18 00:50:51;;;;;;;5.25;3.17;;;;;;;18.43;58.57;96904.47;4932664;29;20083;-84
2022/06/18 00:53:26;;;;;;;5.35;2.95;;;;;;;18.41;58.10;96904.03;4872929;29;20448;-85
2022/06/18 00:56:00;;;;;;;3.85;2.80;;;;;;;18.35;57.95;96913.72;4927666;29;20048;-85
2022/06/18 00:58:37;;;;;;;4.68;3.35;;;;;;;18.33;57.97;96907.78;4913387;29;20044;-84
2022/06/18 01:01:10;;;;;;;4.38;3.00;;;;;;;18.27;57.29;96911.94;4990493;23;20075;-80
2022/06/18 01:03:38;;;;;;;6.32;3.47;;;;;;;18.05;57.61;96918.03;4917985;29;20052;-85
2022/06/18 01:06:14;;;;;;;3.72;2.92;;;;;;;18.12;57.93;96921.00;4951893;23;20032;-81
2022/06/18 01:08:41;;;;;;;4.47;3.00;;;;;;;18.18;58.70;96925.09;4934180;29;20044;-84
2022/06/18 01:11:16;;;;;;;4.45;3.22;;;;;;;18.18;59.48;96919.56;4930497;29;20052;-85
2022/06/18 01:13:44;;;;;;;5.00;3.33;;;;;;;18.18;59.31;96919.56;4934443;29;20050;-85
2022/06/18 01:16:16;;;;;;;4.95;3.15;;;;;;;18.11;58.91;96913.84;4949450;29;20063;-85
2022/06/18 01:21:31;;;;;;;5.05;3.30;;;;;;;18.02;59.10;96911.28;4948454;29;20075;-86
2022/06/18 01:24:10;;;;;;;6.47;3.85;;;;;;;18.02;60.51;96918.75;4985926;23;20139;-83
2022/06/18 01:26:38;;;;;;;4.90;3.65;;;;;;;17.99;59.03;96929.31;4966769;23;20480;-85
2022/06/18 01:29:05;;;;;;;6.15;3.30;;;;;;;17.86;59.61;96932.50;4915607;29;20415;-84
2022/06/18 01:31:32;;;;;;;5.65;2.92;;;;;;;17.85;60.83;96925.34;4914379;29;20044;-84
2022/06/18 01:33:59;;;;;;;5.55;3.25;;;;;;;17.77;60.61;96927.13;4928008;29;20048;-86
2022/06/18 01:36:28;;;;;;;5.97;3.88;;;;;;;17.63;60.41;96937.69;4930743;29;20058;-85
2022/06/18 01:38:55;;;;;;;7.05;3.78;;;;;;;17.52;60.50;96929.13;4915785;29;20080;-85
2022/06/18 01:44:18;;;;;;;7.28;3.80;;;;;;;17.37;62.84;96929.84;4940717;29;20058;-84
2022/06/18 01:46:49;;;;;;;8.32;4.10;;;;;;;17.23;63.70;96930.25;5000030;23;20115;-83
2022/06/18 01:49:20;;;;;;;5.20;3.65;;;;;;;17.22;65.23;96925.88;4949984;23;20689;-84
2022/06/18 01:51:50;;;;;;;5.30;3.75;;;;;;;17.22;65.41;96928.63;4931229;29;20060;-87
2022/06/18 01:54:20;;;;;;;5.28;3.85;;;;;;;17.15;64.80;96920.16;4913637;29;20411;-85
2022/06/18 01:56:54;;;;;;;5.35;3.90;;;;;;;17.14;66.07;96921.31;4932930;29;20056;-84
2022/06/18 01:59:25;;;;;;;5.72;3.85;;;;;;;17.13;65.97;96920.50;4902348;29;20095;-85
2022/06/18 02:01:52;;;;;;;4.55;3.53;;;;;;;17.13;66.64;96903.19;4934635;29;20127;-84
2022/06/18 02:06:46;;;;;;;7.43;3.95;;;;;;;17.05;64.67;96901.38;5121911;23;20052;-84
2022/06/18 02:09:31;;;;;;;5.25;3.90;;;;;;;17.04;65.55;96900.56;4917110;29;20056;-83
2022/06/18 02:12:02;;;;;;;5.03;3.70;;;;;;;16.99;66.40;96892.56;4936471;29;20060;-85
2022/06/18 02:14:31;;;;;;;6.45;3.78;;;;;;;17.03;65.93;96898.16;4935209;29;20048;-85
2022/06/18 02:17:06;;;;;;;5.20;3.85;;;;;;;17.05;65.81;96901.38;4909608;29;20520;-85
2022/06/18 02:19:35;;;;;;;4.18;3.63;;;;;;;17.04;66.38;96894.25;4942037;23;20567;-85
2022/06/18 02:22:03;;;;;;;5.63;4.10;;;;;;;17.03;65.88;96898.16;4902555;29;20476;-82
2022/06/18 02:24:29;;;;;;;4.68;3.80;;;;;;;16.97;65.01;96894.84;4918589;29;20048;-84
2022/06/18 02:26:57;;;;;;;6.28;3.58;;;;;;;16.92;65.52;96904.16;4934356;29;20109;-84
2022/06/18 02:32:21;;;;;;;5.03;3.65;;;;;;;16.89;66.35;96904.81;4931952;29;20067;-85
2022/06/18 02:34:48;;;;;;;4.10;3.50;;;;;;;16.84;67.34;96905.06;4908627;28;20100;-84
2022/06/18 02:37:23;;;;;;;4.93;4.07;;;;;;;16.79;66.94;96894.28;4932732;29;20056;-84
2022/06/18 02:39:57;;;;;;;5.75;3.85;;;;;;;16.79;67.59;96894.28;4935051;29;20055;-83
2022/06/18 02:47:36;;;;;;;5.32;4.10;;;;;;;16.73;66.79;96898.41;5275054;23;20063;-84
2022/06/18 02:50:08;;;;;;;6.32;4.22;;;;;;;16.68;67.00;96898.63;4956481;29;20071;-84
2022/06/18 02:52:40;;;;;;;4.43;3.58;;;;;;;16.67;68.18;96899.78;5281000;23;20044;-86
2022/06/18 02:55:17;;;;;;;5.10;3.88;;;;;;;16.64;68.30;96898.50;4945700;23;20048;-83
2022/06/18 02:57:44;;;;;;;7.80;4.30;;;;;;;16.60;67.68;96899.53;4918835;29;20067;-84
2022/06/18 03:00:13;;;;;;;4.88;3.92;;;;;;;16.55;67.95;96899.75;4918507;29;20048;-83
2022/06/18 03:05:25;;;;;;;;;;;;;;;16.50;67.93;96897.25;4876340;29;20060;-85
2022/06/18 03:07:52;;;;;;;6.57;4.00;;;;;;;16.52;67.98;96892.22;4902007;29;19948;-85
2022/06/18 03:13:04;;;;;;;6.38;4.05;;;;;;;16.53;67.13;96896.56;4900242;29;20055;-81
2022/06/18 03:15:31;;;;;;;8.20;4.38;;;;;;;16.44;68.00;96905.72;4900135;29;20072;-86
2022/06/18 03:18:01;;;;;;;5.43;4.13;;;;;;;16.43;67.66;96895.06;4900298;29;20083;-85
2022/06/18 03:20:36;;;;;;;5.80;4.25;;;;;;;16.37;68.91;96891.72;5202855;23;20048;-84
2022/06/18 03:23:05;;;;;;;5.93;3.92;;;;;;;16.33;69.43;96882.56;4911125;29;20100;-77
2022/06/18 03:25:32;;;;;;;6.82;3.95;;;;;;;16.26;68.55;96890.59;4916918;29;20045;-85
2022/06/18 03:27:59;;;;;;;4.75;4.03;;;;;;;16.26;67.66;96890.59;4910556;29;20061;-84
2022/06/18 03:30:26;;;;;;;4.60;3.65;;;;;;;16.31;68.88;96890.34;4918294;29;20092;-84
2022/06/18 03:32:53;;;;;;;6.22;4.15;;;;;;;16.31;69.71;96895.84;4910459;29;20056;-85
2022/06/18 03:35:24;;;;;;;4.82;3.92;;;;;;;16.31;68.23;96890.34;4904388;29;20052;-85
2022/06/18 03:38:02;;;;;;;4.45;3.90;;;;;;;16.35;68.55;96891.28;4931019;29;20056;-83
2022/06/18 03:40:29;;;;;;;5.97;3.88;;;;;;;16.34;67.74;96888.84;4921005;29;20479;-84
2022/06/18 03:42:56;;;;;;;7.07;4.10;;;;;;;16.30;66.72;96888.75;4900448;29;20072;-85
2022/06/18 03:45:33;;;;;;;7.88;4.10;;;;;;;16.30;66.39;96888.75;4890419;29;20065;-86
2022/06/18 03:48:09;;;;;;;5.80;3.78;;;;;;;16.29;66.35;96886.38;4925009;23;20044;-83
2022/06/18 03:50:37;;;;;;;5.93;4.10;;;;;;;16.20;66.19;96883.72;4937376;29;20067;-85
2022/06/18 03:53:10;;;;;;;4.90;3.72;;;;;;;16.21;65.88;96882.56;4920058;29;20059;-81
2022/06/18 03:55:40;;;;;;;10.52;3.72;;;;;;;16.28;66.79;96882.78;4952091;23;20044;-86
2022/06/18 03:58:07;;;;;;;4.20;3.63;;;;;;;16.39;68.96;96883.13;4919565;29;20041;-82
2022/06/18 04:00:35;;;;;;;7.05;4.03;;;;;;;16.30;66.85;96876.97;4921164;29;20037;-85
2022/06/18 04:03:02;;;;;;;7.88;3.65;;;;;;;16.23;66.03;96876.72;4920525;29;20040;-78
2022/06/18 04:05:29;;;;;;;9.13;4.00;;;;;;;16.21;66.10;96885.31;4945636;23;20064;-85
2022/06/18 04:07:58;;;;;;;4.80;3.60;;;;;;;16.26;67.13;96876.84;4913262;29;20056;-83
2022/06/18 04:10:25;;;;;;;5.65;3.72;;;;;;;16.18;66.14;96867.56;4917070;29;20074;-84
2022/06/18 04:12:52;;;;;;;5.03;3.88;;;;;;;16.17;66.10;96873.38;4958059;23;20073;-83
2022/06/18 04:15:20;;;;;;;5.70;4.07;;;;;;;16.11;65.74;96869.25;4919677;29;20037;-83
2022/06/18 04:17:48;;;;;;;5.55;3.72;;;;;;;16.04;66.09;96866.28;4903019;29;20053;-83
2022/06/18 04:20:21;;;;;;;4.65;3.67;;;;;;;16.12;65.83;96870.84;4918169;29;20048;-83
2022/06/18 04:22:48;;;;;;;;;;;;;;;16.18;65.16;96870.31;4919868;29;20068;-84
2022/06/18 04:25:17;;;;;;;6.88;3.70;;;;;;;16.04;64.60;96869.03;5009190;23;19907;-83
2022/06/18 04:27:45;;;;;;;4.80;3.78;;;;;;;16.12;65.69;96866.16;4921964;29;20054;-84
2022/06/18 04:30:13;;;;;;;5.32;3.60;;;;;;;16.21;66.39;96863.31;4937191;29;20079;-83
2022/06/18 04:32:42;;;;;;;5.05;3.50;;;;;;;16.26;65.14;96860.34;4929198;29;20108;-83
2022/06/18 04:35:11;;;;;;;6.13;3.30;;;;;;;16.40;64.98;96862.78;4937416;29;20043;-82
2022/06/18 04:37:39;;;;;;;5.03;3.28;;;;;;;16.37;63.37;96867.00;4937170;29;20107;-83
2022/06/18 04:40:07;;;;;;;7.10;3.28;;;;;;;16.34;63.31;96861.38;4936127;29;20048;-80
2022/06/18 04:42:35;;;;;;;6.30;3.33;;;;;;;16.01;63.42;96858.72;4935783;29;20056;-82
2022/06/18 04:45:02;;;;;;;4.93;3.28;;;;;;;16.10;62.54;96860.22;4924523;29;20083;-81
2022/06/18 04:47:29;;;;;;;6.22;3.35;;;;;;;16.31;62.82;96860.13;4933787;29;20104;-84
2022/06/18 04:49:58;;;;;;;7.43;3.25;;;;;;;16.25;62.02;96858.75;4916884;29;20048;-83
2022/06/18 04:52:26;;;;;;;3.75;2.80;;;;;;;16.40;62.00;96860.81;4925912;29;20044;-82
2022/06/18 04:54:53;;;;;;;3.60;2.67;;;;;;;16.53;61.74;96863.56;4935413;29;20040;-83
2022/06/18 04:57:20;;;;;;;4.72;3.60;;;;;;;16.59;61.14;96867.69;4933415;29;20048;-84
2022/06/18 04:59:49;;;;;;;4.15;3.03;;;;;;;16.57;61.02;96872.72;4936207;29;20083;-83
2022/06/18 05:02:24;;;;;;;4.40;3.00;;;;;;;16.61;61.17;96865.41;4932407;29;20116;-83
2022/06/18 05:04:55;;;;;;;3.10;2.72;;;;;;;16.68;60.81;96865.63;4914304;29;20087;-84
2022/06/18 05:07:24;;;;;;;3.75;2.80;;;;;;;16.81;60.03;96863.69;4905079;29;20120;-83
2022/06/18 05:09:51;;;;;;;6.22;3.20;;;;;;;16.91;60.50;96857.72;4931038;29;20554;-81
2022/06/18 05:12:18;;;;;;;4.13;3.00;;;;;;;17.04;60.65;96848.28;4929531;29;20111;-83
2022/06/18 05:14:44;;;;;;;4.40;2.90;;;;;;;17.12;60.35;96852.03;4929035;29;20083;-82
2022/06/18 05:17:17;;;;;;;6.60;3.05;;;;;;;17.21;58.75;96856.25;4929989;29;20067;-83
2022/06/18 05:19:44;;;;;;;4.57;2.60;;;;;;;17.23;58.11;96861.44;4941789;23;20075;-80
2022/06/18 05:22:11;;;;;;;4.60;2.92;;;;;;;17.34;59.09;96864.50;4927879;29;20063;-83
2022/06/18 05:24:38;;;;;;;5.57;2.90;;;;;;;17.41;58.43;96864.69;4931200;29;20048;-82
2022/06/18 05:27:05;;;;;;;4.47;2.70;;;;;;;17.59;58.53;96865.19;4917338;29;20131;-83
2022/06/18 05:29:33;;;;;;;4.05;2.60;;;;;;;17.57;58.19;96870.25;4912580;29;20067;-84
2022/06/18 05:31:59;;;;;;;3.80;2.63;;;;;;;17.67;58.64;96867.78;4919978;29;20500;-84
2022/06/18 05:34:27;;;;;;;4.40;2.55;;;;;;;17.82;57.82;96866.25;4933279;29;20048;-84
2022/06/18 05:36:54;;;;;;;3.95;2.47;;;;;;;17.87;57.62;96868.75;4935030;29;20044;-85
2022/06/18 05:39:21;;;;;;;4.30;2.95;;;;;;;17.94;57.54;96874.44;4933757;29;20048;-85
2022/06/18 05:41:47;;;;;;;6.40;2.67;;;;;;;18.09;57.73;96872.09;4917666;29;20464;-84
2022/06/18 05:44:14;;;;;;;3.58;2.58;;;;;;;18.04;58.10;96875.91;4934970;29;20434;-83
2022/06/18 05:46:41;;;;;;;5.00;3.00;;;;;;;18.16;58.03;96872.25;4918813;29;20044;-84
2022/06/18 05:49:09;;;;;;;3.15;2.30;;;;;;;18.35;59.19;96880.63;4935568;29;20052;-84
2022/06/18 05:51:37;;;;;;;4.55;3.00;;;;;;;18.44;60.70;96873.00;4919750;29;20055;-86
2022/06/18 05:54:03;;;;;;;4.20;2.80;;;;;;;18.48;58.86;96879.41;4935824;29;20060;-83
2022/06/18 05:56:30;;;;;;;7.65;2.40;;;;;;;18.40;58.41;96883.13;4938033;29;20048;-87
2022/06/18 05:58:57;;;;;;;5.57;2.38;;;;;;;18.59;58.66;96884.38;4937052;29;20050;-86
2022/06/18 06:01:24;;;;;;;4.00;2.70;;;;;;;18.69;57.99;96875.59;4936367;29;20048;-86
2022/06/18 06:03:50;;;;;;;4.60;2.40;;;;;;;18.77;58.18;96874.59;4919669;29;20048;-84
2022/06/18 06:06:17;;;;;;;6.45;2.70;;;;;;;18.84;58.50;96883.00;4935551;29;20051;-84
2022/06/18 06:08:45;;;;;;;6.18;2.80;;;;;;;18.96;57.80;96877.41;4919514;29;20071;-83
2022/06/18 06:11:28;;;;;;;4.07;2.95;;;;;;;18.94;57.51;96885.22;4936117;29;20071;-84
2022/06/18 06:13:55;;;;;;;3.97;2.60;;;;;;;19.03;56.03;96877.56;4937161;29;20460;-83
2022/06/18 06:16:22;;;;;;;6.90;2.88;;;;;;;19.03;56.46;96887.78;4937397;29;20058;-86
2022/06/18 06:18:49;;;;;;;4.03;2.60;;;;;;;19.11;56.53;96883.25;4931192;29;20048;-82
2022/06/18 06:21:16;;;;;;;4.47;2.70;;;;;;;19.20;56.48;96875.53;4915108;29;20056;-85
2022/06/18 06:23:42;;;;;;;5.68;2.90;;;;;;;19.28;56.95;96877.31;4915962;29;20054;-84
2022/06/18 06:26:17;;;;;;;3.30;2.80;;;;;;;19.35;56.16;96877.44;4916877;29;20056;-84
2022/06/18 06:28:44;;;;;;;2.72;2.30;;;;;;;19.54;55.80;96882.19;4916357;29;20045;-87
2022/06/18 06:31:12;;;;;;;7.30;2.67;;;;;;;19.53;55.43;96883.38;4916523;29;20053;-83
2022/06/18 06:33:38;;;;;;;3.75;3.05;;;;;;;19.67;55.62;96880.91;4917350;29;20040;-84
2022/06/18 06:36:06;;;;;;;3.40;2.60;;;;;;;19.78;55.83;96875.56;4916397;29;20048;-84
2022/06/18 06:38:33;;;;;;;5.18;2.60;;;;;;;19.83;54.95;96880.81;4917958;29;20044;-82
2022/06/18 06:41:00;;;;;;;4.07;2.30;;;;;;;19.94;56.21;96881.84;4910211;29;20104;-85
2022/06/18 06:43:28;;;;;;;5.13;2.40;;;;;;;20.08;55.17;96875.75;4911875;29;20045;-84
2022/06/18 06:45:54;;;;;;;5.07;2.67;;;;;;;20.11;56.28;96868.72;4913895;29;20048;-83
2022/06/18 06:48:21;;;;;;;6.07;2.53;;;;;;;20.14;55.87;96874.28;4913513;29;20052;-85
2022/06/18 06:50:50;;;;;;;4.82;2.72;;;;;;;20.23;56.17;96871.28;4914476;29;20062;-84
2022/06/18 06:53:17;;;;;;;4.35;2.90;;;;;;;20.45;55.80;96872.44;4913914;29;20076;-85
2022/06/18 06:58:29;;;;;;;5.35;3.30;;;;;;;20.60;55.77;96863.25;4910759;29;20077;-84
2022/06/18 07:00:59;;;;;;;4.57;2.63;;;;;;;20.59;55.27;96865.22;4907168;29;20053;-84
2022/06/18 07:03:28;;;;;;;3.42;2.88;;;;;;;20.79;54.79;96865.13;4915899;29;20045;-85
2022/06/18 07:05:56;;;;;;;5.55;2.78;;;;;;;20.86;55.16;96868.00;4915038;29;20052;-85
2022/06/18 07:08:22;;;;;;;5.15;2.53;;;;;;;21.00;54.21;96871.00;4914105;29;20063;-84
2022/06/18 07:10:50;;;;;;;3.80;2.28;;;;;;;21.09;53.40;96863.22;4915149;29;20068;-84
2022/06/18 07:13:18;;;;;;;4.72;3.03;;;;;;;21.23;54.18;96861.81;4906801;29;20536;-86
2022/06/18 07:15:48;;;;;;;5.07;2.80;;;;;;;21.30;54.26;96870.25;4923248;23;20802;-84
2022/06/18 07:18:17;;;;;;;5.57;2.70;;;;;;;21.41;54.08;96846.25;4914603;29;20556;-84
2022/06/18 07:20:45;;;;;;;4.97;2.42;;;;;;;21.60;52.10;96851.63;4931772;29;20044;-85
2022/06/18 07:23:13;;;;;;;4.47;2.30;;;;;;;21.67;52.49;96847.34;4931808;29;20178;-84
2022/06/18 07:25:40;;;;;;;5.80;2.63;;;;;;;21.74;53.16;96841.88;4932346;29;20048;-85
2022/06/18 07:28:08;;;;;;;3.60;2.15;;;;;;;21.86;52.27;96847.16;4968012;23;20040;-82
2022/06/18 07:35:42;;;;;;;3.08;2.40;;;;;;;22.20;52.45;96822.97;4994734;23;20581;-85
2022/06/18 07:38:09;;;;;;;4.07;2.75;;;;;;;22.33;51.86;96826.25;4929175;29;20105;-84
2022/06/18 07:40:47;;;;;;;4.85;2.00;;;;;;;22.44;50.43;96813.25;4919990;29;20070;-84
2022/06/18 07:45:44;;;;;;;3.70;2.20;;;;;;;22.73;50.19;96810.72;4915780;29;20037;-85
2022/06/18 07:48:11;;;;;;;5.20;2.47;;;;;;;22.84;49.80;96819.91;4917306;29;20108;-85
2022/06/18 07:50:42;;;;;;;4.22;3.13;;;;;;;22.91;47.55;96814.41;4919726;29;20068;-86
2022/06/18 07:53:15;;;;;;;3.53;2.17;;;;;;;23.07;48.30;96822.44;4949519;23;20052;-84
2022/06/18 07:55:42;;;;;;;3.80;2.10;;;;;;;23.21;49.76;96807.84;4952704;23;20107;-79
2022/06/18 08:00:42;;;;;;;4.63;2.20;;;;;;;23.44;49.45;96806.38;4892953;29;20538;-85
2022/06/18 08:03:11;;;;;;;6.38;2.40;;;;;;;23.60;49.87;96797.69;4888399;29;20045;-85
2022/06/18 08:05:38;;;;;;;3.63;2.67;;;;;;;23.79;47.99;96804.09;4889333;29;20059;-86
2022/06/18 08:08:06;;;;;;;5.50;2.22;;;;;;;23.85;45.65;96802.53;4893335;29;20477;-85
2022/06/18 08:10:37;;;;;;;3.85;2.05;;;;;;;24.04;47.60;96795.81;4892967;29;20052;-86
2022/06/18 08:13:05;;;;;;;3.58;1.90;;;;;;;24.25;45.84;96801.41;4891208;29;20044;-85
2022/06/18 08:15:33;;;;;;;2.60;1.95;;;;;;;24.60;44.29;96800.63;4895055;29;20056;-86
2022/06/18 08:18:00;;;;;;;5.18;2.25;;;;;;;25.14;43.95;96795.78;4895080;29;20049;-86
2022/06/18 08:20:29;;;;;;;3.47;2.13;;;;;;;25.40;43.42;96796.47;4893474;29;20045;-85
2022/06/18 08:22:59;;;;;;;3.03;1.80;;;;;;;25.46;40.63;96794.84;4895675;29;20077;-86
2022/06/18 08:25:32;;;;;;;3.83;1.70;;;;;;;25.61;40.56;96796.38;4922991;23;20059;-87
2022/06/18 08:28:04;;;;;;;5.65;2.05;;;;;;;25.70;40.46;96782.78;4900357;29;20112;-85
2022/06/18 08:30:32;;;;;;;4.13;2.33;;;;;;;25.61;42.31;96782.44;4868093;29;20029;-85
2022/06/18 08:32:58;;;;;;;3.67;1.80;;;;;;;26.05;46.98;96781.03;4953270;23;20072;-84
2022/06/18 08:35:26;;;;;;;6.43;2.00;;;;;;;26.24;42.78;96772.09;4935802;29;20023;-79
2022/06/18 08:37:53;;;;;;;4.55;1.90;;;;;;;26.27;39.06;96770.50;5025521;23;20095;-77
2022/06/18 08:42:56;;;;;;;3.80;1.85;;;;;;;26.13;40.85;96770.59;5180372;23;20048;-77
2022/06/18 08:48:10;;;;;;;2.67;1.60;;;;;;;26.45;38.20;96764.78;4944114;23;19919;-88
2022/06/18 08:53:29;;;;;;;3.05;1.90;;;;;;;26.81;38.17;96776.41;5716479;23;20036;-73
2022/06/18 08:56:01;;;;;;;2.13;1.60;;;;;;;26.85;36.02;96776.38;5042326;23;20058;-81
2022/06/18 08:58:35;;;;;;;2.30;1.63;;;;;;;26.87;36.05;96780.34;5003658;23;20078;-83
2022/06/18 09:01:06;;;;;;;3.08;1.77;;;;;;;26.68;37.08;96775.34;5278261;23;20135;-78
2022/06/18 09:03:50;;;;;;;2.25;1.58;;;;;;;26.89;37.29;96777.16;5580192;23;20048;-82
2022/06/18 09:06:31;;;;;;;3.20;1.60;;;;;;;27.02;37.88;96778.19;4923783;29;20052;-83
2022/06/18 09:09:09;;;;;;;2.85;1.50;;;;;;;27.12;36.79;96774.50;4906998;29;20048;-83
2022/06/18 09:14:07;;;;;;;4.65;1.65;;;;;;;26.58;36.12;96771.44;5741074;23;20122;-80
2022/06/18 09:21:40;;;;;;;3.67;1.50;;;;;;;27.16;38.33;96764.09;5344634;23;20047;-84
2022/06/18 09:24:09;;;;;;;2.53;1.17;;;;;;;27.12;33.77;96762.53;4920681;29;20059;-82
2022/06/18 09:26:40;;;;;;;2.10;1.40;;;;;;;27.15;33.21;96761.72;4986852;23;20051;-82
2022/06/18 09:29:13;;;;;;;1.67;1.30;;;;;;;27.22;35.31;96762.41;4927712;29;20052;-83
2022/06/18 09:31:46;;;;;;;1.60;1.30;;;;;;;27.44;38.49;96773.34;4918771;29;20048;-84
2022/06/18 09:34:19;;;;;;;5.43;1.40;;;;;;;27.36;31.78;96767.06;4915576;29;20070;-82
2022/06/18 09:36:53;;;;;;;2.58;1.30;;;;;;;27.51;32.87;96753.66;4920458;29;20051;-83
2022/06/18 09:39:25;;;;;;;1.95;1.10;;;;;;;27.85;37.37;96764.03;4914664;29;20050;-86
2022/06/18 09:41:58;;;;;;;2.95;1.33;;;;;;;27.56;33.68;96754.00;4915112;29;20609;-85
2022/06/18 09:44:38;;;;;;;1.98;1.40;;;;;;;27.77;39.21;96757.72;4915059;29;20412;-86
2022/06/18 09:47:09;;;;;;;1.83;1.17;;;;;;;27.93;33.49;96760.72;4914654;29;20052;-90
2022/06/18 09:49:36;;;;;;;5.45;1.42;;;;;;;27.91;33.58;96762.34;4915257;29;20497;-88
2022/06/18 09:52:08;;;;;;;1.50;1.30;;;;;;;28.04;33.56;96755.75;4897281;29;20052;-85
2022/06/18 09:54:38;;;;;;;2.63;1.50;;;;;;;28.11;35.37;96760.44;4914788;29;20099;-92
2022/06/18 09:57:06;;;;;;;2.95;1.50;;;;;;;27.87;31.46;96762.38;4915366;29;20044;-89
2022/06/18 09:59:38;;;;;;;1.88;1.10;;;;;;;27.65;33.36;96747.88;4916464;29;20048;-85
2022/06/18 10:02:17;;;;;;;2.10;1.15;;;;;;;27.74;32.84;96750.97;4897920;29;20044;-89
2022/06/18 10:07:33;;;;;;;1.83;1.27;;;;;;;27.94;33.23;96748.28;4915582;29;20054;-89
2022/06/18 10:10:04;;;;;;;2.53;1.35;;;;;;;27.96;35.79;96742.25;4915243;29;20055;-90
2022/06/18 10:12:34;;;;;;;2.58;1.23;;;;;;;28.04;37.40;96738.94;4915270;29;20044;-90
2022/06/18 10:15:03;;;;;;;1.33;1.15;;;;;;;28.20;34.47;96737.50;4915975;29;20059;-90
2022/06/18 10:17:58;;;;;;;2.15;1.17;;;;;;;28.29;36.29;96734.94;4917019;29;20456;-91
2022/06/18 10:20:32;;;;;;;1.45;1.20;;;;;;;28.18;36.52;96737.91;4918459;29;20044;-89
2022/06/18 10:23:09;;;;;;;6.55;1.40;;;;;;;28.27;35.05;96729.75;4918840;29;20055;-91
2022/06/18 10:25:42;;;;;;;3.88;1.33;;;;;;;28.39;35.88;96736.78;4918849;29;20094;-93
2022/06/18 10:28:15;;;;;;;1.30;0.90;;;;;;;28.26;36.38;96733.78;4918488;29;20106;-92
2022/06/18 10:30:54;;;;;;;4.50;1.35;;;;;;;28.18;31.53;96732.31;4918863;29;20044;-89
2022/06/18 10:33:33;;;;;;;2.15;1.27;;;;;;;28.28;32.38;96722.94;4902636;29;20058;-90
2022/06/18 10:36:09;;;;;;;1.92;1.10;;;;;;;28.31;35.04;96724.91;4918575;29;20095;-92
2022/06/18 10:38:53;;;;;;;1.92;1.25;;;;;;;28.46;38.67;96724.69;4918620;29;20050;-90
2022/06/18 10:41:26;;;;;;;3.33;1.38;;;;;;;28.47;34.77;96718.66;4919230;29;20409;-93
2022/06/18 10:44:04;;;;;;;1.25;1.15;;;;;;;28.71;35.30;96713.81;4917759;29;20055;-90
2022/06/18 10:46:31;;;;;;;1.70;0.93;;;;;;;28.66;31.62;96716.31;4918108;29;20044;-91
2022/06/18 10:49:00;;;;;;;3.95;0.93;;;;;;;28.48;28.62;96711.81;4917749;29;20416;-91
2022/06/18 10:51:35;;;;;;;2.20;1.00;;;;;;;28.49;28.97;96718.22;4917491;29;20056;-92
2022/06/18 10:54:03;;;;;;;2.28;0.88;;;;;;;28.46;27.38;96707.88;4900858;29;20052;-85
2022/06/18 10:56:33;;;;;;;2.22;1.10;;;;;;;28.47;28.40;96709.47;4918254;29;20103;-88
2022/06/18 10:59:01;;;;;;;1.17;0.95;;;;;;;28.53;32.79;96705.72;4917838;29;20080;-92
2022/06/18 11:01:34;;;;;;;1.20;1.00;;;;;;;28.60;30.38;96702.00;4918023;29;20048;-91
2022/06/18 11:04:03;;;;;;;1.00;0.88;;;;;;;28.65;36.16;96707.13;4917602;29;20129;-92
2022/06/18 11:06:31;;;;;;;1.42;1.02;;;;;;;28.62;31.55;96705.19;4917412;29;20510;-89
2022/06/18 11:09:00;;;;;;;1.65;1.05;;;;;;;28.89;29.67;96698.69;4918362;29;20060;-88
2022/06/18 11:11:31;;;;;;;1.98;1.20;;;;;;;28.80;29.04;96702.03;4918497;29;20051;-90
2022/06/18 11:14:14;;;;;;;1.73;1.30;;;;;;;28.73;30.80;96700.16;4918028;29;20056;-90
2022/06/18 11:16:43;;;;;;;4.07;1.30;;;;;;;28.62;28.20;96705.19;4917242;29;20616;-88
2022/06/18 11:19:16;;;;;;;1.35;1.17;;;;;;;28.76;28.32;96696.50;4916762;29;20087;-90
2022/06/18 11:21:44;;;;;;;1.25;1.10;;;;;;;28.69;28.78;96693.84;4900269;29;20047;-91
2022/06/18 11:24:24;;;;;;;2.45;1.20;;;;;;;28.64;34.32;96691.53;4899393;29;20068;-89
2022/06/18 11:26:57;;;;;;;3.20;1.73;;;;;;;28.62;35.52;96688.38;4917548;29;20079;-92
2022/06/18 11:29:29;;;;;;;1.85;1.30;;;;;;;28.70;35.88;96691.81;4916676;29;20046;-89
2022/06/18 11:31:57;;;;;;;;;;;;;;;28.73;32.94;96686.16;4918118;29;20634;-90
2022/06/18 11:34:27;;;;;;;4.30;3.05;;;;;;;28.85;34.23;96685.50;4916570;29;19923;-90
2022/06/18 11:36:57;;;;;;;3.58;1.33;;;;;;;28.78;34.88;96680.06;4917327;29;20075;-90
2022/06/18 11:39:32;;;;;;;2.83;1.52;;;;;;;28.80;34.27;96677.59;4916645;29;20044;-89
2022/06/18 11:42:05;;;;;;;2.08;1.30;;;;;;;28.78;30.33;96677.25;4916524;29;20559;-89
2022/06/18 11:44:37;;;;;;;3.33;2.03;;;;;;;28.82;34.98;96672.38;4916786;29;20043;-89
2022/06/18 11:47:11;;;;;;;1.63;1.30;;;;;;;28.77;37.66;96672.88;4917212;29;20090;-90
2022/06/18 11:49:43;;;;;;;2.47;1.40;;;;;;;28.78;33.95;96673.66;4916976;29;20389;-91
2022/06/18 11:52:15;;;;;;;2.95;1.40;;;;;;;28.75;32.11;96669.69;4916539;29;20068;-88
2022/06/18 11:54:53;;;;;;;3.78;1.52;;;;;;;28.70;30.64;96663.78;4916852;29;20066;-88
2022/06/18 11:57:28;;;;;;;4.00;1.27;;;;;;;28.79;30.99;96656.41;4916084;29;20044;-88
2022/06/18 12:00:04;;;;;;;3.78;1.50;;;;;;;28.77;36.17;96655.28;4916413;29;20060;-89
2022/06/18 12:02:42;;;;;;;1.73;1.20;;;;;;;28.82;31.29;96658.34;4916180;29;20048;-88
2022/06/18 12:05:12;;;;;;;3.30;1.40;;;;;;;28.90;30.75;96652.59;4915918;29;20507;-91
2022/06/18 12:07:45;;;;;;;2.92;1.52;;;;;;;28.89;29.83;96648.22;4916586;29;20047;-91
2022/06/18 12:10:14;;;;;;;2.13;1.30;;;;;;;28.93;32.54;96646.13;4916166;29;20048;-89
2022/06/18 12:13:06;;;;;;;4.35;1.50;;;;;;;28.92;35.41;96638.94;4915831;29;20051;-89
2022/06/18 12:15:39;;;;;;;2.30;1.40;;;;;;;28.88;34.33;96638.25;4916710;29;20044;-91
2022/06/18 12:18:13;;;;;;;3.17;1.23;;;;;;;28.90;33.55;96638.59;4915633;29;20567;-89
2022/06/18 12:21:02;;;;;;;1.73;1.27;;;;;;;29.03;32.83;96625.53;4915838;29;20460;-87
2022/06/18 12:23:40;;;;;;;3.50;1.40;;;;;;;29.03;28.98;96639.56;4915635;29;20040;-88
2022/06/18 12:26:12;;;;;;;4.18;1.50;;;;;;;29.03;31.13;96622.72;4914959;29;20420;-88
2022/06/18 12:28:48;;;;;;;4.03;1.50;;;;;;;29.03;29.64;96620.72;4915831;29;20412;-87
2022/06/18 12:31:20;;;;;;;4.53;1.58;;;;;;;29.16;28.71;96620.03;4898116;29;20052;-86
2022/06/18 12:33:56;;;;;;;2.67;1.35;;;;;;;29.06;28.30;96616.25;4915665;29;20130;-88
2022/06/18 12:36:33;;;;;;;3.63;1.40;;;;;;;29.19;34.57;96614.34;4914957;29;20047;-90
2022/06/18 12:39:09;;;;;;;8.85;1.80;;;;;;;29.27;36.08;96617.78;4915589;29;20056;-88
2022/06/18 12:41:40;;;;;;;2.47;1.40;;;;;;;29.44;32.76;96607.38;4898809;29;20072;-87
2022/06/18 12:44:23;;;;;;;3.20;1.75;;;;;;;29.22;32.46;96613.47;4914385;29;20056;-86
2022/06/18 12:46:56;;;;;;;2.72;1.33;;;;;;;29.31;32.75;96610.88;4899076;29;20567;-90
2022/06/18 12:49:31;;;;;;;4.15;1.30;;;;;;;29.36;30.88;96601.94;4915020;29;20040;-90